Terminal Aerodrome Forecast
Issued by NWS

Home | Current Version | Previous Version | Text Only | Print | Product List | Glossary On
Versions: 1 2 3 4 5 6 7 8 9 10 11 12 13 14 15 16 17 18 19 20 21 22
000
FTAK31 PAFA 292341
TAFAOR
TAF
PAOR 292341Z 3000/3024 VRB04KT P6SM SCT040 BKN090
     FM300300 30004KT P6SM VCSH BKN050 OVC100
     FM300600 32010KT P6SM -SHRA BKN035 OVC050
     FM301800 32010KT P6SM SCT025 BKN040=

USA.gov is the U.S. government's official web portal to all federal, state and local government web resources and services.